Flight Track Log - Related Links

Times and Time Zones

All times are in EDT time to prevent confusion due to time zone crossing. See the RPA3253 flight status page for this flight to view local times or setup timezone preferences in your user account.

Time Position Orientation Groundspeed Altitude Reporting Facility
EDT Latitude Longitude Course Direction KTS MPH feet Rate Location/Type
Sun 10:36:41 PM 35.2353 -80.9594 246° West 161 185 1,500  Level Atlanta Center
Sun 10:37:48 PM 35.2842 -81.0008 325° Northwest 222 255 2,800 1,795 Climbing Atlanta Center
Sun 10:38:48 PM 35.2864 -81.0897 272° West 292 336 5,300 2,632 Climbing Atlanta Center
Sun 10:39:00 PM 35.1752 -81.2559 199° South  Level FlightAware Approximate
Sun 10:39:42 PM 35.2756 -81.1639 260° West 281 323 7,800  Level Atlanta Center
Sun 10:40:00 PM 35.0782 -81.3014 251° West  Level FlightAware Approximate
Sun 10:40:42 PM 35.2256 -81.2497 235° Southwest 301 346 10,800  Level Atlanta Center
Sun 10:41:00 PM 35.0399 -81.4279 246° West  Level FlightAware Approximate
Sun 10:41:42 PM 35.1467 -81.2753 195° South 339 390 12,800  Level Atlanta Center
Sun 10:42:42 PM 35.0689 -81.3361 213° Southwest 329 379 14,600 1,900 Climbing Atlanta Center
Sun 10:43:42 PM 35.0400 -81.4486 253° West 317 365 16,600 1,950 Climbing Atlanta Center
Sun 10:44:42 PM 35.0067 -81.5561 249° West 335 386 18,500 1,900 Climbing Atlanta Center
Sun 10:45:42 PM 34.9733 -81.6661 250° West 351 404 20,400 1,500 Climbing Atlanta Center
Sun 10:46:42 PM 34.9400 -81.7811 251° West 360 414 21,500 1,250 Climbing Atlanta Center
Sun 10:47:42 PM 34.8836 -81.8967 239° Southwest 383 441 22,900 1,250 Climbing Atlanta Center
Sun 10:48:42 PM 34.8208 -82.0019 234° Southwest 388 447 24,000 1,050 Climbing Atlanta Center
Sun 10:49:42 PM 34.7581 -82.1122 235° Southwest 400 460 25,000 950 Climbing Atlanta Center
Sun 10:50:42 PM 34.6908 -82.2300 235° Southwest 413 475 25,900 850 Climbing Atlanta Center
Sun 10:51:42 PM 34.6236 -82.3500 236° Southwest 425 489 26,700 1,050 Climbing Atlanta Center
Sun 10:52:42 PM 34.5564 -82.4650 235° Southwest 432 497 28,000 1,300 Climbing Atlanta Center
Sun 10:53:42 PM 34.4931 -82.5744 235° Southwest 421 484 29,300 1,250 Climbing Atlanta Center
Sun 10:54:42 PM 34.4317 -82.6739 233° Southwest 421 484 30,500 1,150 Climbing Atlanta Center
Sun 10:55:42 PM 34.3681 -82.7856 235° Southwest 410 472 31,600 1,000 Climbing Atlanta Center
Sun 10:56:42 PM 34.3044 -82.8947 235° Southwest 405 466 32,500 800 Climbing Atlanta Center
Sun 10:57:42 PM 34.2428 -83.0061 236° Southwest 410 472 33,200 750 Climbing Atlanta Center
Sun 10:58:42 PM 34.1769 -83.1147 234° Southwest 405 466 34,000 400 Climbing Atlanta Center
Sun 10:59:42 PM 34.1131 -83.2283 236° Southwest 405 466 34,000  Level Atlanta Center
Sun 11:00:42 PM 34.0428 -83.3444 234° Southwest 421 484 34,000  Level Atlanta Center
Sun 11:01:42 PM 33.9642 -83.4778 235° Southwest 439 505 34,000  Level Atlanta Center
Sun 11:02:42 PM 33.8917 -83.5983 234° Southwest 450 518 34,000  Level Atlanta Center
Sun 11:03:42 PM 33.8189 -83.7239 235° Southwest 455 524 34,000  Level Atlanta Center
Sun 11:04:42 PM 33.7439 -83.8464 234° Southwest 460 529 34,000  Level Atlanta Center
Sun 11:05:42 PM 33.6689 -83.9739 235° Southwest 460 529 34,000  Level Atlanta Center
Sun 11:06:42 PM 33.5981 -84.0936 235° Southwest 460 529 34,000  Level Atlanta Center
Sun 11:07:42 PM 33.5292 -84.2083 234° Southwest 460 529 34,000  Level Atlanta Center
Sun 11:08:42 PM 33.4578 -84.3300 235° Southwest 460 529 34,000  Level Atlanta Center
Sun 11:09:42 PM 33.3825 -84.4542 234° Southwest 460 529 34,000  Level Atlanta Center
Sun 11:10:42 PM 33.3089 -84.5781 235° Southwest 465 535 34,000  Level Atlanta Center
Sun 11:11:42 PM 33.2353 -84.6994 234° Southwest 465 535 34,000  Level Atlanta Center
Sun 11:12:42 PM 33.1531 -84.8353 234° Southwest 465 535 34,000  Level Atlanta Center
Sun 11:13:42 PM 33.0792 -84.9536 233° Southwest 459 528 34,000  Level Atlanta Center
Sun 11:14:42 PM 33.0072 -85.0792 236° Southwest 459 528 34,000  Level Atlanta Center
Sun 11:15:42 PM 32.9311 -85.1922 231° Southwest 453 521 34,000  Level Atlanta Center
Sun 11:16:42 PM 32.8547 -85.3122 233° Southwest 453 521 34,000  Level Atlanta Center
Sun 11:17:42 PM 32.7803 -85.4297 233° Southwest 459 528 34,000  Level Atlanta Center
Sun 11:18:42 PM 32.7017 -85.5519 233° Southwest 459 528 34,000  Level Atlanta Center
Sun 11:19:42 PM 32.6292 -85.6767 235° Southwest 459 528 34,000  Level Atlanta Center
Sun 11:20:42 PM 32.5522 -85.7958 233° Southwest 459 528 34,000  Level Atlanta Center
Sun 11:21:42 PM 32.4753 -85.9225 234° Southwest 464 534 34,000  Level Atlanta Center
Sun 11:22:42 PM 32.4003 -86.0414 233° Southwest 470 541 34,000  Level Atlanta Center
Sun 11:23:42 PM 32.3169 -86.1647 231° Southwest 470 541 34,000  Level Atlanta Center
Sun 11:24:42 PM 32.2439 -86.2858 235° Southwest 470 541 34,000  Level Atlanta Center
Sun 11:25:42 PM 32.1772 -86.3872 232° Southwest 486 559 34,000  Level Atlanta Center
Sun 11:26:42 PM 32.0933 -86.5125 232° Southwest 474 545 34,000  Level Atlanta Center
Sun 11:27:42 PM 32.0075 -86.6300 229° Southwest 474 545 34,000  Level Atlanta Center
Sun 11:28:42 PM 31.9108 -86.7544 228° Southwest 469 540 34,000  Level Atlanta Center
Sun 11:29:42 PM 31.8269 -86.8694 229° Southwest 474 545 34,000  Level Atlanta Center
Sun 11:30:42 PM 31.7428 -86.9864 230° Southwest 480 552 34,000 -350 Level Atlanta Center
Sun 11:31:42 PM 31.6714 -87.0914 231° Southwest 480 552 33,300 -950 Descending Atlanta Center
Sun 11:32:42 PM 31.5850 -87.2103 230° Southwest 474 545 32,100 -538 Descending Atlanta Center
Sun 11:34:07 PM 31.4494 -87.3875 228° Southwest 475 547 32,000 -41 Descending Houston Center
Sun 11:35:08 PM 31.3619 -87.5050 229° Southwest 478 550 32,000  Level Houston Center
Sun 11:36:09 PM 31.2756 -87.6219 229° Southwest 477 549 32,000  Level Houston Center
Sun 11:37:09 PM 31.1908 -87.7356 229° Southwest 474 545 32,000  Level Houston Center
Sun 11:38:10 PM 31.1047 -87.8542 230° Southwest 478 550 32,000  Level Houston Center
Sun 11:39:11 PM 31.0356 -87.9847 238° Southwest 477 549 32,000  Level Houston Center
Sun 11:40:11 PM 30.9692 -88.1181 240° Southwest 477 549 32,000  Level Houston Center
Sun 11:41:12 PM 30.9011 -88.2533 240° Southwest 485 558 32,000  Level Houston Center
Sun 11:42:12 PM 30.8367 -88.3886 241° Southwest 476 548 32,000  Level Houston Center
Sun 11:43:13 PM 30.7708 -88.5228 240° Southwest 476 548 32,000 -344 Level Houston Center
Sun 11:44:14 PM 30.6961 -88.6706 240° Southwest 480 552 31,300 -1,636 Descending Houston Center
Sun 11:45:14 PM 30.6289 -88.8047 240° Southwest 480 552 28,700 -2,479 Descending Houston Center
Sun 11:46:15 PM 30.5642 -88.9339 240° Southwest 467 537 26,300 -2,281 Descending Houston Center
Sun 11:47:15 PM 30.5083 -89.0478 240° Southwest 456 525 24,100 -2,216 Descending Houston Center
Sun 11:48:06 PM 30.4625 -89.1464 242° Southwest 440 506 22,200 -2,231 Descending Houston Center
Sun 11:49:16 PM 30.3897 -89.2831 238° Southwest 420 483 19,600 -2,198 Descending Houston Center
Sun 11:50:17 PM 30.3211 -89.3881 233° Southwest 411 473 17,400 -2,132 Descending Houston Center
Sun 11:51:17 PM 30.2461 -89.4819 227° Southwest 398 458 15,300 -2,226 Descending Houston Center
Sun 11:52:21 PM 30.1614 -89.5947 229° Southwest 380 437 12,800 -2,083 Descending Houston Center
Sun 11:53:18 PM 30.1444 -89.6856 258° West 369 425 11,100 -893 Descending Houston Center
Sun 11:54:22 PM 30.1350 -89.8050 265° West 299 344 11,000 -694 Descending Houston Center
Sun 11:55:19 PM 30.1275 -89.8856 264° West 302 348 9,700 -1,627 Descending Houston Center
Sun 11:56:20 PM 30.1200 -89.9811 265° West 298 343 7,800 -2,033 Descending Houston Center
Sun 11:57:20 PM 30.1117 -90.0742 264° West 293 337 5,600 -1,740 Descending Houston Center
Sun 11:58:31 PM 30.1014 -90.1817 264° West 246 283 4,000 -733 Descending Houston Center
Sun 11:59:31 PM 30.0953 -90.2539 264° West 212 244 4,000 -432 Level Houston Center
Mon 12:00:22 AM 30.0922 -90.3036 266° West 229 264 3,200 -1,135 Descending Houston Center
Mon 12:01:22 AM 30.0836 -90.3697 261° West 216 249 1,900 -843 Descending Houston Center
Mon 12:02:23 AM 30.0336 -90.3756 186° South 187 215 1,500 -595 Descending Houston Center
Mon 12:03:23 AM 30.0094 -90.3339 124° Southeast 173 199 700 -545 Descending Houston Center
Mon 12:04:24 AM 29.9956 -90.2792 106° East 166 191 400 -295 Descending Houston Center

Login

Don't have an account? Register now (free) for customized features, flight alerts, and more!